createdAt,value
2019-05-13T00:01:26.561Z,2.33
2019-05-13T00:04:09.214Z,2.43
2019-05-13T00:06:55.090Z,3.07
2019-05-13T00:09:36.499Z,3.37
2019-05-13T00:12:19.377Z,4.23
2019-05-13T00:15:03.749Z,2.67
2019-05-13T00:17:46.519Z,4.60
2019-05-13T00:20:29.735Z,6.30
2019-05-13T00:23:14.378Z,2.30
2019-05-13T00:25:57.953Z,3.63
2019-05-13T00:28:40.964Z,7.40
2019-05-13T00:31:24.094Z,2.87
2019-05-13T00:34:07.306Z,2.17
2019-05-13T00:37:03.696Z,1.70
2019-05-13T00:39:34.481Z,1.90
2019-05-13T00:42:17.248Z,2.20
2019-05-13T00:45:00.188Z,1.70
2019-05-13T00:47:43.692Z,1.57
2019-05-13T00:50:26.899Z,1.30
2019-05-13T00:53:09.466Z,1.93
2019-05-13T00:55:53.591Z,1.20
2019-05-13T00:58:36.788Z,1.43
2019-05-13T01:01:19.677Z,1.20
2019-05-13T01:04:03.976Z,1.63
2019-05-13T01:06:48.007Z,1.50
2019-05-13T01:09:30.785Z,1.53
2019-05-13T01:12:13.879Z,1.33
2019-05-13T01:14:56.665Z,2.83
2019-05-13T01:17:39.558Z,2.27
2019-05-13T01:20:23.549Z,2.20
2019-05-13T01:23:06.650Z,2.10
2019-05-13T01:25:49.612Z,3.03
2019-05-13T01:28:34.487Z,2.70
2019-05-13T01:31:17.041Z,1.83
2019-05-13T01:34:00.161Z,1.43
2019-05-13T01:36:44.586Z,3.43
2019-05-13T01:39:28.066Z,1.97
2019-05-13T01:42:10.991Z,2.20
2019-05-13T01:44:54.172Z,2.27
2019-05-13T01:47:36.777Z,4.07
2019-05-13T01:50:19.828Z,1.67
2019-05-13T01:53:04.333Z,2.73
2019-05-13T01:55:47.201Z,5.40
2019-05-13T01:58:29.853Z,4.33
2019-05-13T02:01:13.833Z,4.60
2019-05-13T02:03:57.035Z,4.60
2019-05-13T02:06:40.022Z,5.53
2019-05-13T02:09:24.438Z,5.20
2019-05-13T02:12:07.734Z,2.13
2019-05-13T02:14:50.459Z,4.37
2019-05-13T02:17:33.730Z,2.73
2019-05-13T02:20:17.038Z,2.73
2019-05-13T02:23:00.175Z,3.50
2019-05-13T02:25:43.603Z,1.77
2019-05-13T02:28:26.716Z,2.40
2019-05-13T02:31:12.419Z,2.63
2019-05-13T02:33:53.745Z,2.73
2019-05-13T02:36:36.703Z,2.83
2019-05-13T02:39:22.275Z,3.57
2019-05-13T02:42:04.128Z,2.03
2019-05-13T02:44:47.230Z,2.57
2019-05-13T02:47:32.858Z,3.97
2019-05-13T02:50:14.408Z,3.13
2019-05-13T02:52:57.169Z,2.90
2019-05-13T02:55:43.440Z,2.93
2019-05-13T02:58:25.033Z,5.87
2019-05-13T03:01:08.506Z,5.20
2019-05-13T03:03:52.796Z,3.57
2019-05-13T03:06:35.923Z,2.67
2019-05-13T03:09:19.143Z,5.27
2019-05-13T03:12:03.951Z,3.30
2019-05-13T03:14:48.541Z,3.57
2019-05-13T03:17:36.530Z,3.53
2019-05-13T03:20:22.381Z,2.50
2019-05-13T03:23:04.005Z,6.37
2019-05-13T03:25:46.857Z,3.37
2019-05-13T03:28:33.140Z,3.43
2019-05-13T03:31:16.552Z,4.10
2019-05-13T03:33:58.601Z,2.17
2019-05-13T03:36:45.703Z,2.00
2019-05-13T03:39:27.756Z,4.97
2019-05-13T03:42:12.333Z,3.63
2019-05-13T03:44:57.822Z,2.67
2019-05-13T03:47:42.238Z,4.43
2019-05-13T03:50:25.368Z,3.13
2019-05-13T03:53:08.188Z,2.33
2019-05-13T03:55:54.098Z,6.60
2019-05-13T03:58:36.764Z,5.43
2019-05-13T04:01:22.137Z,5.57
2019-05-13T04:04:03.785Z,5.37
2019-05-13T04:06:46.868Z,4.57
2019-05-13T04:09:32.661Z,3.33
2019-05-13T04:12:15.016Z,4.13
2019-05-13T04:14:57.876Z,4.83
2019-05-13T04:17:42.768Z,3.20
2019-05-13T04:20:25.383Z,10.07
2019-05-13T04:23:08.368Z,3.63
2019-05-13T04:25:53.724Z,5.43
2019-05-13T04:28:35.672Z,5.10
2019-05-13T04:31:18.661Z,3.53
2019-05-13T04:34:02.178Z,4.10
2019-05-13T04:36:45.515Z,2.97
2019-05-13T04:39:44.729Z,3.47
2019-05-13T04:42:12.872Z,4.17
2019-05-13T04:44:55.819Z,4.40
2019-05-13T04:47:38.688Z,5.40
2019-05-13T04:50:22.679Z,3.03
2019-05-13T04:53:06.045Z,3.47
2019-05-13T04:55:49.024Z,2.90
2019-05-13T04:58:32.365Z,2.93
2019-05-13T05:02:05.036Z,2.77
2019-05-13T05:04:52.647Z,3.37
2019-05-13T05:08:04.955Z,3.77
2019-05-13T05:11:32.163Z,4.70
2019-05-13T05:14:45.837Z,7.33
2019-05-13T05:17:55.660Z,2.63
2019-05-13T05:20:56.891Z,3.27
2019-05-13T05:24:02.004Z,4.47
2019-05-13T05:27:21.362Z,4.20
2019-05-13T05:30:42.338Z,4.00
2019-05-13T05:34:11.634Z,3.53
2019-05-13T05:37:28.614Z,4.20
2019-05-13T05:40:12.392Z,7.50
2019-05-13T05:42:55.516Z,3.27
2019-05-13T05:45:41.356Z,3.30
2019-05-13T05:48:24.620Z,6.80
2019-05-13T05:51:08.390Z,5.50
2019-05-13T05:53:52.418Z,5.00
2019-05-13T05:56:37.217Z,3.67
2019-05-13T05:59:21.915Z,4.27
2019-05-13T06:02:04.906Z,2.97
2019-05-13T06:04:47.642Z,6.00
2019-05-13T06:07:32.358Z,3.57
2019-05-13T06:10:14.682Z,2.50
2019-05-13T06:12:58.017Z,4.03
2019-05-13T06:15:42.049Z,6.07
2019-05-13T06:18:25.077Z,3.20
2019-05-13T06:21:08.457Z,6.10
2019-05-13T06:23:52.898Z,3.03
2019-05-13T06:26:35.665Z,3.93
2019-05-13T06:29:18.694Z,4.20
2019-05-13T06:32:15.063Z,4.43
2019-05-13T06:34:46.174Z,3.53
2019-05-13T06:37:28.942Z,4.57
2019-05-13T06:40:12.524Z,6.80
2019-05-13T06:42:55.427Z,3.60
2019-05-13T06:45:38.395Z,4.20
2019-05-13T06:48:23.141Z,3.73
2019-05-13T06:51:05.737Z,4.60
2019-05-13T06:53:48.729Z,3.97
2019-05-13T06:56:32.265Z,3.27
2019-05-13T06:59:15.081Z,4.40
2019-05-13T07:01:57.834Z,7.73
2019-05-13T07:04:41.562Z,2.97
2019-05-13T07:07:24.385Z,3.13
2019-05-13T07:10:07.054Z,4.20
2019-05-13T07:12:51.874Z,5.93
2019-05-13T07:15:34.338Z,4.43
2019-05-13T07:18:17.945Z,4.03
2019-05-13T07:21:02.236Z,3.43
2019-05-13T07:23:45.264Z,3.33
2019-05-13T07:26:28.365Z,3.77
2019-05-13T07:29:12.911Z,3.90
2019-05-13T07:31:56.379Z,4.10
2019-05-13T07:34:43.441Z,3.00
2019-05-13T07:37:23.793Z,2.47
2019-05-13T07:40:07.089Z,3.57
2019-05-13T07:42:52.134Z,3.50
2019-05-13T07:45:34.096Z,3.20
2019-05-13T07:48:21.270Z,3.30
2019-05-13T07:51:04.650Z,6.00
2019-05-13T07:53:46.065Z,3.43
2019-05-13T07:56:28.996Z,5.57
2019-05-13T07:59:12.379Z,4.37
2019-05-13T08:01:55.604Z,3.30
2019-05-13T08:04:38.538Z,3.53
2019-05-13T08:07:22.643Z,5.00
2019-05-13T08:10:06.027Z,3.53
2019-05-13T08:12:48.761Z,4.90
2019-05-13T08:15:31.731Z,3.87
2019-05-13T08:18:14.512Z,4.27
2019-05-13T08:20:57.558Z,4.27
2019-05-13T08:23:41.739Z,4.47
2019-05-13T08:26:24.784Z,4.77
2019-05-13T08:29:07.797Z,4.60
2019-05-13T08:31:51.791Z,4.27
2019-05-13T08:34:35.040Z,3.93
2019-05-13T08:37:17.707Z,4.27
2019-05-13T08:40:01.582Z,4.03
2019-05-13T08:42:45.725Z,3.60
2019-05-13T08:45:31.323Z,5.10
2019-05-13T08:48:13.024Z,4.93
2019-05-13T08:50:56.112Z,3.70
2019-05-13T08:53:38.801Z,6.80
2019-05-13T08:56:21.886Z,3.83
2019-05-13T08:59:04.567Z,4.87
2019-05-13T09:01:47.525Z,7.13
2019-05-13T09:04:31.631Z,4.97
2019-05-13T09:07:14.814Z,5.37
2019-05-13T09:09:57.549Z,4.23
2019-05-13T09:12:43.264Z,4.40
2019-05-13T09:15:25.136Z,5.77
2019-05-13T09:18:07.841Z,7.40
2019-05-13T09:20:52.101Z,4.57
2019-05-13T09:23:35.512Z,6.60
2019-05-13T09:26:17.965Z,4.03
2019-05-13T09:29:01.464Z,7.30
2019-05-13T09:31:44.613Z,4.97
2019-05-13T09:34:27.728Z,6.37
2019-05-13T09:37:11.880Z,3.27
2019-05-13T09:39:54.800Z,5.47
2019-05-13T09:42:48.241Z,5.07
2019-05-13T09:45:22.138Z,5.33
2019-05-13T09:48:04.828Z,4.30
2019-05-13T09:50:47.609Z,4.97
2019-05-13T09:53:32.566Z,4.50
2019-05-13T09:56:14.762Z,5.40
2019-05-13T09:58:57.485Z,4.30
2019-05-13T10:01:42.473Z,4.70
2019-05-13T10:04:25.787Z,5.17
2019-05-13T10:07:08.728Z,4.43
2019-05-13T10:09:52.135Z,4.23
2019-05-13T10:12:35.246Z,4.10
2019-05-13T10:15:22.050Z,6.87
2019-05-13T10:18:03.859Z,9.37
2019-05-13T10:20:57.659Z,5.67
2019-05-13T10:23:37.501Z,5.43
2019-05-13T10:26:21.994Z,5.70
2019-05-13T10:29:04.579Z,5.13
2019-05-13T10:31:47.297Z,4.13
2019-05-13T10:34:32.144Z,5.53
2019-05-13T10:37:14.516Z,7.47
2019-05-13T10:39:57.762Z,5.17
2019-05-13T10:42:43.127Z,6.37
2019-05-13T10:45:24.975Z,9.43
2019-05-13T10:48:10.464Z,6.43
2019-05-13T10:50:52.891Z,5.77
2019-05-13T10:53:35.836Z,4.60
2019-05-13T10:56:19.295Z,6.80
2019-05-13T10:59:03.002Z,7.53
2019-05-13T11:01:46.132Z,5.77
2019-05-13T11:04:28.591Z,11.20
2019-05-13T11:07:12.035Z,6.80
2019-05-13T11:09:54.847Z,10.10
2019-05-13T11:12:38.256Z,5.37
2019-05-13T11:15:21.008Z,5.60
2019-05-13T11:18:04.093Z,8.63
2019-05-13T11:20:48.070Z,7.37
2019-05-13T11:23:32.212Z,4.53
2019-05-13T11:26:15.932Z,7.63
2019-05-13T11:28:58.928Z,5.77
2019-05-13T11:31:42.767Z,8.53
2019-05-13T11:34:27.118Z,5.57
2019-05-13T11:37:12.307Z,5.33
2019-05-13T11:39:54.509Z,8.57
2019-05-13T11:42:37.436Z,10.63
2019-05-13T11:45:22.349Z,11.27
2019-05-13T11:48:05.402Z,8.10
2019-05-13T11:50:50.541Z,6.17
2019-05-13T11:53:36.578Z,4.63
2019-05-13T11:56:17.857Z,7.37
2019-05-13T11:59:04.071Z,7.67
2019-05-13T12:01:44.938Z,10.33
2019-05-13T12:04:27.703Z,5.70
2019-05-13T12:07:13.059Z,4.60
2019-05-13T12:09:54.860Z,10.87
2019-05-13T12:12:37.967Z,6.17
2019-05-13T12:15:28.914Z,7.23
2019-05-13T12:18:05.759Z,5.87
2019-05-13T12:20:48.514Z,8.63
2019-05-13T12:23:31.953Z,7.77
2019-05-13T12:26:16.015Z,5.93
2019-05-13T12:29:02.536Z,9.33
2019-05-13T12:31:43.245Z,6.60
2019-05-13T12:34:26.602Z,5.03
2019-05-13T12:37:12.024Z,10.63
2019-05-13T12:39:53.983Z,7.57
2019-05-13T12:42:43.127Z,8.73
2019-05-13T12:45:22.416Z,10.60
2019-05-13T12:48:05.410Z,5.77
2019-05-13T12:50:48.706Z,7.63
2019-05-13T12:53:32.145Z,7.23
2019-05-13T12:56:16.047Z,6.77
2019-05-13T12:58:58.831Z,5.73
2019-05-13T13:01:41.527Z,8.03
2019-05-13T13:04:24.641Z,10.33
2019-05-13T13:07:07.571Z,9.37
2019-05-13T13:09:53.534Z,8.87
2019-05-13T13:15:37.138Z,10.27
2019-05-13T13:18:04.381Z,10.27
2019-05-13T13:20:56.176Z,4.67
2019-05-13T13:23:34.104Z,10.17
2019-05-13T13:26:17.123Z,6.53
2019-05-13T13:29:00.124Z,8.77
2019-05-13T13:31:43.398Z,4.10
2019-05-13T13:34:26.757Z,16.17
2019-05-13T13:37:09.452Z,6.57
2019-05-13T13:39:54.991Z,5.53
2019-05-13T13:42:38.093Z,5.40
2019-05-13T13:45:22.886Z,7.60
2019-05-13T13:48:05.653Z,13.57
2019-05-13T13:50:48.656Z,8.07
2019-05-13T13:53:33.230Z,12.33
2019-05-13T13:56:16.587Z,12.70
2019-05-13T13:59:00.118Z,11.97
2019-05-13T14:01:44.471Z,11.17
2019-05-13T14:04:27.930Z,11.87
2019-05-13T14:06:50.057Z,5.83
2019-05-13T14:07:27.751Z,7.53
2019-05-13T14:09:55.329Z,8.77
2019-05-13T14:12:41.396Z,7.45
2019-05-13T14:15:23.250Z,4.37
2019-05-13T14:18:06.541Z,2.62
2019-05-13T14:20:49.195Z,4.22
2019-05-13T14:23:32.213Z,2.03
2019-05-13T14:26:15.094Z,3.47
2019-05-13T14:28:59.954Z,3.52
2019-05-13T14:31:43.442Z,3.35
2019-05-13T14:34:26.151Z,1.60
2019-05-13T14:37:08.836Z,4.58
2019-05-13T14:39:51.771Z,2.90
2019-05-13T14:42:34.617Z,0.93
2019-05-13T14:45:20.618Z,5.00
2019-05-13T14:48:02.427Z,1.35
2019-05-13T14:50:45.373Z,2.25
2019-05-13T14:53:28.272Z,1.07
2019-05-13T14:56:14.117Z,1.52
2019-05-13T14:58:55.384Z,2.00
2019-05-13T15:01:41.170Z,3.35
2019-05-13T15:04:23.181Z,3.08
2019-05-13T15:07:08.933Z,3.27
2019-05-13T15:09:51.726Z,1.37
2019-05-13T15:12:34.681Z,0.98
2019-05-13T15:15:17.412Z,0.90
2019-05-13T15:18:01.479Z,0.82
2019-05-13T15:20:44.354Z,1.47
2019-05-13T15:23:27.679Z,0.93
2019-05-13T15:26:11.712Z,1.82
2019-05-13T15:28:55.256Z,0.72
2019-05-13T15:31:38.088Z,3.02
2019-05-13T15:34:21.647Z,0.95
2019-05-13T15:37:04.468Z,1.47
2019-05-13T15:39:47.286Z,1.75
2019-05-13T15:42:31.942Z,2.47
2019-05-13T15:45:14.731Z,1.07
2019-05-13T15:47:57.563Z,1.32
2019-05-13T15:50:42.246Z,1.80
2019-05-13T15:53:25.232Z,1.47
2019-05-13T15:56:08.146Z,2.72
2019-05-13T15:58:53.054Z,5.67
2019-05-13T16:01:35.543Z,1.30
2019-05-13T16:04:18.477Z,2.50
2019-05-13T16:07:01.893Z,1.12
2019-05-13T16:09:44.672Z,1.20
2019-05-13T16:12:28.167Z,3.83
2019-05-13T16:15:15.511Z,1.20
2019-05-13T16:17:55.966Z,4.22
2019-05-13T16:20:41.941Z,1.22
2019-05-13T16:23:23.389Z,1.52
2019-05-13T16:26:06.014Z,3.62
2019-05-13T16:28:49.022Z,1.45
2019-05-13T16:31:32.105Z,1.75
2019-05-13T16:34:15.007Z,3.15
2019-05-13T16:36:57.975Z,0.93
2019-05-13T16:39:41.609Z,1.25
2019-05-13T16:42:24.454Z,1.60
2019-05-13T16:45:07.628Z,1.25
2019-05-13T16:47:57.154Z,2.40
2019-05-13T16:50:34.780Z,1.25
2019-05-13T16:53:17.640Z,2.22
2019-05-13T16:56:01.764Z,4.78
2019-05-13T16:58:44.616Z,4.17
2019-05-13T17:01:28.022Z,1.67
2019-05-13T17:04:12.367Z,1.42
2019-05-13T17:06:55.034Z,1.47
2019-05-13T17:09:37.645Z,1.30
2019-05-13T17:12:21.248Z,2.92
2019-05-13T17:15:04.010Z,3.75
2019-05-13T17:17:46.898Z,3.08
2019-05-13T17:20:31.952Z,3.62
2019-05-13T17:23:13.758Z,2.52
2019-05-13T17:25:56.730Z,1.52
2019-05-13T17:28:41.668Z,1.17
2019-05-13T17:31:24.073Z,1.42
2019-05-13T17:34:06.948Z,1.52
2019-05-13T17:36:51.731Z,1.77
2019-05-13T17:39:34.228Z,3.62
2019-05-13T17:42:16.813Z,3.90
2019-05-13T17:45:02.219Z,3.12
2019-05-13T17:47:44.290Z,3.22
2019-05-13T17:50:27.209Z,1.10
2019-05-13T17:53:11.382Z,6.35
2019-05-13T17:55:54.178Z,2.10
2019-05-13T17:58:37.054Z,4.75
2019-05-13T18:01:21.242Z,2.52
2019-05-13T18:04:04.031Z,5.53
2019-05-13T18:06:46.922Z,3.35
2019-05-13T18:09:31.551Z,5.30
2019-05-13T18:12:14.019Z,4.25
2019-05-13T18:14:56.645Z,4.42
2019-05-13T18:17:41.681Z,6.92
2019-05-13T18:20:24.245Z,2.95
2019-05-13T18:23:07.087Z,1.95
2019-05-13T18:25:51.452Z,3.35
2019-05-13T18:28:34.510Z,3.45
2019-05-13T18:31:17.114Z,3.50
2019-05-13T18:34:01.552Z,2.02
2019-05-13T18:36:44.368Z,4.95
2019-05-13T18:39:27.574Z,2.17
2019-05-13T18:42:11.480Z,4.20
2019-05-13T18:44:54.882Z,4.47
2019-05-13T18:47:37.697Z,3.72
2019-05-13T18:50:21.938Z,4.50
2019-05-13T18:53:04.841Z,4.95
2019-05-13T18:55:48.212Z,4.53
2019-05-13T18:58:31.649Z,7.47
2019-05-13T19:01:15.117Z,3.52
2019-05-13T19:03:57.839Z,2.37
2019-05-13T19:06:42.322Z,5.40
2019-05-13T19:09:26.018Z,1.87
2019-05-13T19:12:11.438Z,4.58
2019-05-13T19:14:53.348Z,4.25
2019-05-13T19:17:36.615Z,3.25
2019-05-13T19:20:21.823Z,5.92
2019-05-13T19:23:04.801Z,5.67
2019-05-13T19:25:47.459Z,4.28
2019-05-13T19:28:31.718Z,7.67
2019-05-13T19:31:14.578Z,8.25
2019-05-13T19:33:57.452Z,6.85
2019-05-13T19:36:40.474Z,4.37
2019-05-13T19:39:23.684Z,6.00
2019-05-13T19:42:06.284Z,6.35
2019-05-13T19:44:51.035Z,7.30
2019-05-13T19:47:33.470Z,5.25
2019-05-13T19:50:16.645Z,4.85
2019-05-13T19:53:01.305Z,4.45
2019-05-13T19:55:45.611Z,6.00
2019-05-13T19:58:28.179Z,6.50
2019-05-13T20:01:11.629Z,6.90
2019-05-13T20:03:54.539Z,3.10
2019-05-13T20:06:37.362Z,3.90
2019-05-13T20:09:21.547Z,4.65
2019-05-13T20:12:05.110Z,3.10
2019-05-13T20:14:47.717Z,3.47
2019-05-13T20:17:32.067Z,6.08
2019-05-13T20:20:15.956Z,4.67
2019-05-13T20:23:01.346Z,5.30
2019-05-13T20:25:44.207Z,4.83
2019-05-13T20:28:27.517Z,3.47
2019-05-13T20:31:11.063Z,3.00
2019-05-13T20:33:54.249Z,8.58
2019-05-13T20:36:38.016Z,3.00
2019-05-13T20:39:22.496Z,4.92
2019-05-13T20:42:05.314Z,4.05
2019-05-13T20:44:48.541Z,5.55
2019-05-13T20:47:33.281Z,2.50
2019-05-13T20:50:16.189Z,3.00
2019-05-13T20:52:59.048Z,3.87
2019-05-13T20:55:41.951Z,4.35
2019-05-13T20:58:24.527Z,5.42
2019-05-13T21:01:07.801Z,4.47
2019-05-13T21:03:51.543Z,4.42
2019-05-13T21:06:35.002Z,3.72
2019-05-13T21:09:17.899Z,2.70
2019-05-13T21:12:01.832Z,2.62
2019-05-13T21:14:45.955Z,4.40
2019-05-13T21:17:29.082Z,3.85
2019-05-13T21:20:19.672Z,2.72
2019-05-13T21:22:57.407Z,2.77
2019-05-13T21:25:41.876Z,6.92
2019-05-13T21:28:24.933Z,3.08
2019-05-13T21:31:07.615Z,4.75
2019-05-13T21:33:51.381Z,2.62
2019-05-13T21:36:34.085Z,2.75
2019-05-13T21:39:17.220Z,3.70
2019-05-13T21:42:02.122Z,4.35
2019-05-13T21:44:45.611Z,3.05
2019-05-13T21:47:28.437Z,2.60
2019-05-13T21:50:11.725Z,2.77
2019-05-13T21:52:54.290Z,4.78
2019-05-13T21:55:37.648Z,3.52
2019-05-13T21:58:24.320Z,2.40
2019-05-13T22:01:08.090Z,2.60
2019-05-13T22:03:51.431Z,4.45
2019-05-13T22:06:36.359Z,3.62
2019-05-13T22:09:19.099Z,4.22
2019-05-13T22:12:02.177Z,8.20
2019-05-13T22:14:45.266Z,7.58
2019-05-13T22:17:28.782Z,5.62
2019-05-13T22:20:12.309Z,11.40
2019-05-13T22:22:55.278Z,10.72
2019-05-13T22:25:38.163Z,8.45
2019-05-13T22:28:22.097Z,7.97
2019-05-13T22:31:06.911Z,6.27
2019-05-13T22:33:51.814Z,5.35
2019-05-13T22:36:34.603Z,4.20
2019-05-13T22:39:18.427Z,5.93
2019-05-13T22:42:01.628Z,5.25
2019-05-13T22:44:45.040Z,11.50
2019-05-13T22:47:27.869Z,7.23
2019-05-13T22:50:11.610Z,4.73
2019-05-13T22:52:54.422Z,7.10
2019-05-13T22:55:37.309Z,8.60
2019-05-13T22:58:22.357Z,8.97
2019-05-13T23:01:04.589Z,8.87
2019-05-13T23:03:47.343Z,4.83
2019-05-13T23:06:32.177Z,7.50
2019-05-13T23:09:14.729Z,9.60
2019-05-13T23:11:58.069Z,5.28
2019-05-13T23:14:41.405Z,9.83
2019-05-13T23:17:24.445Z,11.20
2019-05-13T23:20:07.335Z,10.10
2019-05-13T23:22:51.925Z,19.07
2019-05-13T23:25:34.655Z,8.63
2019-05-13T23:28:17.564Z,10.50
2019-05-13T23:31:01.680Z,11.67
2019-05-13T23:33:45.138Z,11.07
2019-05-13T23:36:27.982Z,8.97
2019-05-13T23:39:11.735Z,9.60
2019-05-13T23:41:55.443Z,8.13
2019-05-13T23:44:41.195Z,8.70
2019-05-13T23:47:23.044Z,16.87
2019-05-13T23:50:06.131Z,6.77
2019-05-13T23:52:51.022Z,7.43
2019-05-13T23:55:33.341Z,8.40
2019-05-13T23:58:16.272Z,7.87
